Morton S Bouchard Jr — WSE9678 — position and weather

sailwx.info

Track history (hours):
 
Tides and Currents Weather Stations Pressure Air Temp Water Temp Dewpoint Dewpoint Depression Visibility Wind Speed Wind Dir Waves Ship Positions

Morton S Bouchard Jr

More information available from US FCC via Universal Licensing System and Coast Guard Vessel Documentation Center.

Last reported at 2014-Sep-18 09:33 UTC. Time now 2014-Sep-18 09:36 UTC.
Position N 41°11' W 072°50'.

Length 33 m; draft 6 m.

Type: Tug. MMSI: 367006550.

Date/timePositionNaut miles runAvg speedWind from/ knotsBaromVisibWave heightAir tempDewpointWater temp
2014-Sep-18 09:33N 41°11' W 072°50'9 9.3
2014-Sep-18 08:33N 41°11' W 072°38'10 9.5
2014-Sep-18 07:33N 41°11' W 072°25'9 9.2
2014-Sep-18 06:33N 41°13' W 072°13'8 8.1
2014-Sep-18 05:33N 41°14' W 072°02'8 7.8
2014-Sep-18 04:33N 41°15' W 071°52'8 7.9
2014-Sep-18 03:33N 41°17' W 071°42'8 8.2
2014-Sep-18 02:33N 41°18' W 071°31'8 8.1
2014-Sep-18 01:33N 41°19' W 071°20'8 8.2
2014-Sep-18 00:33N 41°22' W 071°10'9 8.3
2014-Sep-17 23:31N 41°27' W 071°01'53 6.3
2014-Sep-17 15:05N 42°18' W 070°41'5 8.7
2014-Sep-17 14:32N 42°23' W 070°42'9 9.1
2014-Sep-17 13:31N 42°31' W 070°37'9 9.1
2014-Sep-17 12:32N 42°40' W 070°33'9 9.3
2014-Sep-17 11:33N 42°49' W 070°33'10 9.6
2014-Sep-17 10:33N 42°58' W 070°32'38 8.9
2014-Sep-17 06:13N 43°32' W 070°07'5 7.3
2014-Sep-17 05:33N 43°36' W 070°11'4 4.2
2014-Sep-17 04:33N 43°40' W 070°14'0 0.3
2014-Sep-17 03:33N 43°39' W 070°14'0 0.0
2014-Sep-17 02:33N 43°39' W 070°14'0 0.0
2014-Sep-17 01:28N 43°39' W 070°14'0 0.0
2014-Sep-17 00:30N 43°39' W 070°14'0 0.0
2014-Sep-16 23:33N 43°39' W 070°14'0 0.0
2014-Sep-16 22:33N 43°39' W 070°14'0 0.0
2014-Sep-16 21:33N 43°39' W 070°14'0 0.0
2014-Sep-16 20:33N 43°39' W 070°14'0 0.0
2014-Sep-16 19:33N 43°39' W 070°14'0 0.0
2014-Sep-16 18:33N 43°39' W 070°14'0 0.0
2014-Sep-16 17:33N 43°39' W 070°14'0 0.0
2014-Sep-16 16:33N 43°39' W 070°14'0 0.0
2014-Sep-16 15:33N 43°39' W 070°14'0 0.0
2014-Sep-16 14:33N 43°39' W 070°14'0 0.0
2014-Sep-16 13:33N 43°39' W 070°14'0 0.0
2014-Sep-16 12:33N 43°39' W 070°14'2 1.6
2014-Sep-16 11:25N 43°38' W 070°13'4 4.2
2014-Sep-16 10:33N 43°35' W 070°10'4 4.3
2014-Sep-16 09:33N 43°31' W 070°07'39 5.6
2014-Sep-16 02:33N 42°56' W 070°32'7 6.9
2014-Sep-16 01:33N 42°49' W 070°32'7 6.6
2014-Sep-16 00:33N 42°43' W 070°32'12 5.8
2014-Sep-15 22:28N 42°31' W 070°37'6 6.2
2014-Sep-15 21:28N 42°26' W 070°41'13 6.0
2014-Sep-15 19:15N 42°13' W 070°38'6 6.3
2014-Sep-15 18:17N 42°07' W 070°34'18 6.0
2014-Sep-15 15:15N 41°49' W 070°28'10 4.7
2014-Sep-15 13:07N 41°43' W 070°39'5 6.6
2014-Sep-15 12:26N 41°39' W 070°41'15 5.3
2014-Sep-15 09:31N 41°28' W 070°56'5 5.5
2014-Sep-15 08:33N 41°25' W 071°02'6 5.9
2014-Sep-15 07:33N 41°24' W 071°10'6 6.1
2014-Sep-15 06:33N 41°22' W 071°18'6 5.8
2014-Sep-15 05:33N 41°20' W 071°25'5 5.5
2014-Sep-15 04:33N 41°18' W 071°31'6 6.0
2014-Sep-15 03:33N 41°17' W 071°39'6 6.5
2014-Sep-15 02:33N 41°16' W 071°48'8 7.5
2014-Sep-15 01:33N 41°14' W 071°57'9 8.6
2014-Sep-15 00:33N 41°14' W 072°09'9 8.9
2014-Sep-14 23:33N 41°13' W 072°20'5 5.2
2014-Sep-14 22:33N 41°12' W 072°27'9 8.7
2014-Sep-14 21:33N 41°12' W 072°39'8 7.9
2014-Sep-14 20:33N 41°11' W 072°49'7 7.3
2014-Sep-14 19:33N 41°08' W 072°58'7 6.9
2014-Sep-14 18:33N 41°05' W 073°07'7 6.7
2014-Sep-14 17:33N 41°04' W 073°15'7 6.6
2014-Sep-14 16:33N 41°02' W 073°24'7 7.1
2014-Sep-14 15:32N 40°59' W 073°32'8 7.4
2014-Sep-14 14:30N 40°55' W 073°41'7 7.6
2014-Sep-14 13:32N 40°49' W 073°47'6 6.1
2014-Sep-14 12:33N 40°48' W 073°55'5 4.8
2014-Sep-14 11:32N 40°43' W 073°58'4 3.7
2014-Sep-14 10:26N 40°41' W 074°02'1 0.6
2014-Sep-14 09:31N 40°40' W 074°02'0 0.1
2014-Sep-14 08:31N 40°40' W 074°02'2 2.5
2014-Sep-14 07:33N 40°39' W 074°05'6 5.9
2014-Sep-14 06:33N 40°37' W 074°12'2 1.6
2014-Sep-14 05:22N 40°35' W 074°13'0 0.1
2014-Sep-14 02:31N 40°35' W 074°12'0 0.0
2014-Sep-13 17:12N 40°36' W 074°12'4 5.8
2014-Sep-13 16:33N 40°39' W 074°10'2 2.0
2014-Sep-13 15:30N 40°39' W 074°07'0 0.0
2014-Sep-13 14:30N 40°39' W 074°07'0 0.0
2014-Sep-13 13:33N 40°39' W 074°07'5 4.7
2014-Sep-13 12:33N 40°36' W 074°12'0 0.1
2014-Sep-13 11:29N 40°36' W 074°12'4 4.5
2014-Sep-13 10:33N 40°39' W 074°08'5 5.2
2014-Sep-13 09:33N 40°40' W 074°02'0 0.1
2014-Sep-13 08:33N 40°40' W 074°02'0 0.0
2014-Sep-13 07:16N 40°40' W 074°02'0 0.0
2014-Sep-13 06:33N 40°40' W 074°02'0 0.0
2014-Sep-13 05:32N 40°40' W 074°02'0 0.1
2014-Sep-13 04:33N 40°40' W 074°02'0 0.1
2014-Sep-13 03:33N 40°40' W 074°02'0 0.1
2014-Sep-13 02:33N 40°40' W 074°02'0 0.1
2014-Sep-13 01:19N 40°40' W 074°02'0 0.1
2014-Sep-13 00:33N 40°40' W 074°02'0 0.0
2014-Sep-12 22:24N 40°40' W 074°02'0 0.0
2014-Sep-12 21:31N 40°40' W 074°02'0 0.0
2014-Sep-12 20:26N 40°40' W 074°02'0 0.0
2014-Sep-12 19:20N 40°40' W 074°02'0 0.0
2014-Sep-12 18:33N 40°40' W 074°02'2 1.8
2014-Sep-12 17:24N 40°42' W 074°00'6 7.2
2014-Sep-12 16:33N 40°47' W 073°55'5 4.6
2014-Sep-12 15:27N 40°48' W 073°49'6 6.3
2014-Sep-12 14:33N 40°52' W 073°44'3 3.5
2014-Sep-12 13:33N 40°54' W 073°40'6 4.6
2014-Sep-12 12:13N 40°58' W 073°33'3 4.7
2014-Sep-12 11:31N 40°59' W 073°30'11 5.5
2014-Sep-12 09:26N 41°03' W 073°16'7 8.1
2014-Sep-12 08:33N 41°05' W 073°07'8 8.2
2014-Sep-12 07:33N 41°10' W 072°58'6 5.5
2014-Sep-12 06:33N 41°15' W 072°55'3 2.5
2014-Sep-12 05:33N 41°18' W 072°54'0 0.1
2014-Sep-12 04:30N 41°18' W 072°54'0 0.0
2014-Sep-12 02:23N 41°18' W 072°54'0 0.0
2014-Sep-12 01:31N 41°18' W 072°54'0 0.0
2014-Sep-12 00:06N 41°18' W 072°54'0 0.0
2014-Sep-11 23:33N 41°18' W 072°54'0 0.0
2014-Sep-11 22:31N 41°18' W 072°54'0 0.0
2014-Sep-11 21:29N 41°18' W 072°54'0 0.0
2014-Sep-11 20:31N 41°18' W 072°54'0 0.0
2014-Sep-11 19:33N 41°18' W 072°54'0 0.1
2014-Sep-11 18:34N 41°18' W 072°54'5 4.8
2014-Sep-11 17:34N 41°13' W 072°54'6 6.0
2014-Sep-11 16:33N 41°09' W 073°00'6 6.2
2014-Sep-11 15:33N 41°05' W 073°07'7 7.1
2014-Sep-11 14:33N 41°04' W 073°16'6 6.3
2014-Sep-11 13:33N 41°02' W 073°24'7 6.8
2014-Sep-11 12:33N 40°59' W 073°33'7 7.2
2014-Sep-11 11:33N 40°55' W 073°41'7 7.4
2014-Sep-11 10:33N 40°49' W 073°47'6 6.2
2014-Sep-11 09:33N 40°48' W 073°55'4 4.4
2014-Sep-11 08:33N 40°44' W 073°58'4 3.9
2014-Sep-11 07:33N 40°41' W 074°01'6 5.8
2014-Sep-11 06:33N 40°39' W 074°08'5 4.6
2014-Sep-11 05:33N 40°35' W 074°12'2 2.3
2014-Sep-11 04:33N 40°33' W 074°14'0 0.0
2014-Sep-11 03:33N 40°33' W 074°14'6 6.3
2014-Sep-11 02:33N 40°39' W 074°10'2 2.2
2014-Sep-11 01:33N 40°39' W 074°07'0 0.0
2014-Sep-11 00:33N 40°39' W 074°07'0 0.0
2014-Sep-10 23:33N 40°39' W 074°07'0 0.0
2014-Sep-10 22:33N 40°39' W 074°07'0 0.0
2014-Sep-10 21:33N 40°39' W 074°07'0 0.0
2014-Sep-10 20:33N 40°39' W 074°07'0 0.0
2014-Sep-10 19:33N 40°39' W 074°07'0 0.0
2014-Sep-10 18:33N 40°39' W 074°07'0 0.1
2014-Sep-10 17:33N 40°39' W 074°07'0 0.3
2014-Sep-10 16:33N 40°39' W 074°07'0 0.0
2014-Sep-10 15:33N 40°39' W 074°07'0 0.0
2014-Sep-10 14:33N 40°39' W 074°07'0 0.0
2014-Sep-10 13:33N 40°39' W 074°07'4 3.9
2014-Sep-10 12:33N 40°38' W 074°12'4 4.5
2014-Sep-10 11:33N 40°34' W 074°14'0 0.0
2014-Sep-10 10:34N 40°34' W 074°14'0 0.0
2014-Sep-10 09:33N 40°34' W 074°14'0 0.0
2014-Sep-10 08:34N 40°34' W 074°14'0 0.0
2014-Sep-10 07:33N 40°34' W 074°14'0 0.0
2014-Sep-10 06:33N 40°34' W 074°14'1 1.1
2014-Sep-10 05:33N 40°33' W 074°15'1 1.1
2014-Sep-10 04:33N 40°34' W 074°14'0 0.0
2014-Sep-10 03:34N 40°34' W 074°14'2 2.0
2014-Sep-10 02:33N 40°35' W 074°13'1 0.7
2014-Sep-10 01:33N 40°34' W 074°13'1 1.3
2014-Sep-10 00:27N 40°34' W 074°14'1 1.3
2014-Sep-09 23:23N 40°34' W 074°13'5 5.7
2014-Sep-09 22:33N 40°39' W 074°11'6 6.2
2014-Sep-09 21:33N 40°39' W 074°03'0 0.3
2014-Sep-09 20:33N 40°39' W 074°03'0 0.0
2014-Sep-09 19:33N 40°39' W 074°03'0 0.0
2014-Sep-09 18:33N 40°39' W 074°03'0 0.0
2014-Sep-09 17:33N 40°39' W 074°03'0 0.1
2014-Sep-09 16:33N 40°39' W 074°02'1 0.7
2014-Sep-09 15:33N 40°39' W 074°03'7 6.5
2014-Sep-09 14:33N 40°44' W 073°58'6 5.7
2014-Sep-09 13:33N 40°48' W 073°52'5 5.2
2014-Sep-09 12:33N 40°50' W 073°46'6 6.2
2014-Sep-09 11:31N 40°55' W 073°40'6 5.4
2014-Sep-09 10:29N 40°57' W 073°33'5 5.2
2014-Sep-09 09:33N 40°59' W 073°28'5 5.1
2014-Sep-09 08:33N 41°01' W 073°21'5 4.7
2014-Sep-09 07:33N 41°01' W 073°15'5 5.4
2014-Sep-09 06:33N 41°02' W 073°08'5 4.9
2014-Sep-09 05:32N 41°03' W 073°01'10 5.0
2014-Sep-09 03:32N 41°05' W 072°48'5 5.0
2014-Sep-09 02:33N 41°06' W 072°42'5 5.1
2014-Sep-09 01:33N 41°08' W 072°36'8 7.6
2014-Sep-09 00:33N 41°10' W 072°26'8 8.5
2014-Sep-08 23:33N 41°13' W 072°16'9 9.3
2014-Sep-08 22:33N 41°14' W 072°03'8 7.9
2014-Sep-08 21:34N 41°15' W 071°53'9 8.6
2014-Sep-08 20:33N 41°17' W 071°42'8 8.4
2014-Sep-08 19:33N 41°18' W 071°31'8 7.7
2014-Sep-08 18:33N 41°24' W 071°24'6 6.5
2014-Sep-08 17:33N 41°30' W 071°21'7 6.6
2014-Sep-08 16:32N 41°36' W 071°17'7 7.0
2014-Sep-08 15:33N 41°43' W 071°20'4 4.3
2014-Sep-08 14:31N 41°47' W 071°22'0 0.1
2014-Sep-08 13:33N 41°47' W 071°22'0 0.0
2014-Sep-08 12:33N 41°47' W 071°22'0 0.0
2014-Sep-08 11:33N 41°47' W 071°22'0 0.0
2014-Sep-08 10:33N 41°47' W 071°22'0 0.0
2014-Sep-08 09:33N 41°47' W 071°22'0 0.0
2014-Sep-08 08:33N 41°47' W 071°22'  
Track history (hours):
 
Tides and Currents Weather Stations Pressure Air Temp Water Temp Dewpoint Dewpoint Depression Visibility Wind Speed Wind Dir Waves Ship Positions

Morton S Bouchard Jr

More information available from US FCC via Universal Licensing System and Coast Guard Vessel Documentation Center.

Last reported at 2014-Sep-18 09:33 UTC. Time now 2014-Sep-18 09:36 UTC.
Position N 41°11' W 072°50'.

Length 33 m; draft 6 m.

Type: Tug. MMSI: 367006550.

Date/timePositionNaut miles runAvg speedWind from/ knotsBaromVisibWave heightAir tempDewpointWater temp
2014-Sep-18 09:33N 41°11' W 072°50'9 9.3
2014-Sep-18 08:33N 41°11' W 072°38'10 9.5
2014-Sep-18 07:33N 41°11' W 072°25'9 9.2
2014-Sep-18 06:33N 41°13' W 072°13'8 8.1
2014-Sep-18 05:33N 41°14' W 072°02'8 7.8
2014-Sep-18 04:33N 41°15' W 071°52'8 7.9
2014-Sep-18 03:33N 41°17' W 071°42'8 8.2
2014-Sep-18 02:33N 41°18' W 071°31'8 8.1
2014-Sep-18 01:33N 41°19' W 071°20'8 8.2
2014-Sep-18 00:33N 41°22' W 071°10'9 8.3
2014-Sep-17 23:31N 41°27' W 071°01'53 6.3
2014-Sep-17 15:05N 42°18' W 070°41'5 8.7
2014-Sep-17 14:32N 42°23' W 070°42'9 9.1
2014-Sep-17 13:31N 42°31' W 070°37'9 9.1
2014-Sep-17 12:32N 42°40' W 070°33'9 9.3
2014-Sep-17 11:33N 42°49' W 070°33'10 9.6
2014-Sep-17 10:33N 42°58' W 070°32'38 8.9
2014-Sep-17 06:13N 43°32' W 070°07'5 7.3
2014-Sep-17 05:33N 43°36' W 070°11'4 4.2
2014-Sep-17 04:33N 43°40' W 070°14'0 0.3
2014-Sep-17 03:33N 43°39' W 070°14'0 0.0
2014-Sep-17 02:33N 43°39' W 070°14'0 0.0
2014-Sep-17 01:28N 43°39' W 070°14'0 0.0
2014-Sep-17 00:30N 43°39' W 070°14'0 0.0
2014-Sep-16 23:33N 43°39' W 070°14'0 0.0
2014-Sep-16 22:33N 43°39' W 070°14'0 0.0
2014-Sep-16 21:33N 43°39' W 070°14'0 0.0
2014-Sep-16 20:33N 43°39' W 070°14'0 0.0
2014-Sep-16 19:33N 43°39' W 070°14'0 0.0
2014-Sep-16 18:33N 43°39' W 070°14'0 0.0
2014-Sep-16 17:33N 43°39' W 070°14'0 0.0
2014-Sep-16 16:33N 43°39' W 070°14'0 0.0
2014-Sep-16 15:33N 43°39' W 070°14'0 0.0
2014-Sep-16 14:33N 43°39' W 070°14'0 0.0
2014-Sep-16 13:33N 43°39' W 070°14'0 0.0
2014-Sep-16 12:33N 43°39' W 070°14'2 1.6
2014-Sep-16 11:25N 43°38' W 070°13'4 4.2
2014-Sep-16 10:33N 43°35' W 070°10'4 4.3
2014-Sep-16 09:33N 43°31' W 070°07'39 5.6
2014-Sep-16 02:33N 42°56' W 070°32'7 6.9
2014-Sep-16 01:33N 42°49' W 070°32'7 6.6
2014-Sep-16 00:33N 42°43' W 070°32'12 5.8
2014-Sep-15 22:28N 42°31' W 070°37'6 6.2
2014-Sep-15 21:28N 42°26' W 070°41'13 6.0
2014-Sep-15 19:15N 42°13' W 070°38'6 6.3
2014-Sep-15 18:17N 42°07' W 070°34'18 6.0
2014-Sep-15 15:15N 41°49' W 070°28'10 4.7
2014-Sep-15 13:07N 41°43' W 070°39'5 6.6
2014-Sep-15 12:26N 41°39' W 070°41'15 5.3
2014-Sep-15 09:31N 41°28' W 070°56'5 5.5
2014-Sep-15 08:33N 41°25' W 071°02'6 5.9
2014-Sep-15 07:33N 41°24' W 071°10'6 6.1
2014-Sep-15 06:33N 41°22' W 071°18'6 5.8
2014-Sep-15 05:33N 41°20' W 071°25'5 5.5
2014-Sep-15 04:33N 41°18' W 071°31'6 6.0
2014-Sep-15 03:33N 41°17' W 071°39'6 6.5
2014-Sep-15 02:33N 41°16' W 071°48'8 7.5
2014-Sep-15 01:33N 41°14' W 071°57'9 8.6
2014-Sep-15 00:33N 41°14' W 072°09'9 8.9
2014-Sep-14 23:33N 41°13' W 072°20'5 5.2
2014-Sep-14 22:33N 41°12' W 072°27'9 8.7
2014-Sep-14 21:33N 41°12' W 072°39'8 7.9
2014-Sep-14 20:33N 41°11' W 072°49'7 7.3
2014-Sep-14 19:33N 41°08' W 072°58'7 6.9
2014-Sep-14 18:33N 41°05' W 073°07'7 6.7
2014-Sep-14 17:33N 41°04' W 073°15'7 6.6
2014-Sep-14 16:33N 41°02' W 073°24'7 7.1
2014-Sep-14 15:32N 40°59' W 073°32'8 7.4
2014-Sep-14 14:30N 40°55' W 073°41'7 7.6
2014-Sep-14 13:32N 40°49' W 073°47'6 6.1
2014-Sep-14 12:33N 40°48' W 073°55'5 4.8
2014-Sep-14 11:32N 40°43' W 073°58'4 3.7
2014-Sep-14 10:26N 40°41' W 074°02'1 0.6
2014-Sep-14 09:31N 40°40' W 074°02'0 0.1
2014-Sep-14 08:31N 40°40' W 074°02'2 2.5
2014-Sep-14 07:33N 40°39' W 074°05'6 5.9
2014-Sep-14 06:33N 40°37' W 074°12'2 1.6
2014-Sep-14 05:22N 40°35' W 074°13'0 0.1
2014-Sep-14 02:31N 40°35' W 074°12'0 0.0
2014-Sep-13 17:12N 40°36' W 074°12'4 5.8
2014-Sep-13 16:33N 40°39' W 074°10'2 2.0
2014-Sep-13 15:30N 40°39' W 074°07'0 0.0
2014-Sep-13 14:30N 40°39' W 074°07'0 0.0
2014-Sep-13 13:33N 40°39' W 074°07'5 4.7
2014-Sep-13 12:33N 40°36' W 074°12'0 0.1
2014-Sep-13 11:29N 40°36' W 074°12'4 4.5
2014-Sep-13 10:33N 40°39' W 074°08'5 5.2
2014-Sep-13 09:33N 40°40' W 074°02'0 0.1
2014-Sep-13 08:33N 40°40' W 074°02'0 0.0
2014-Sep-13 07:16N 40°40' W 074°02'0 0.0
2014-Sep-13 06:33N 40°40' W 074°02'0 0.0
2014-Sep-13 05:32N 40°40' W 074°02'0 0.1
2014-Sep-13 04:33N 40°40' W 074°02'0 0.1
2014-Sep-13 03:33N 40°40' W 074°02'0 0.1
2014-Sep-13 02:33N 40°40' W 074°02'0 0.1
2014-Sep-13 01:19N 40°40' W 074°02'0 0.1
2014-Sep-13 00:33N 40°40' W 074°02'0 0.0
2014-Sep-12 22:24N 40°40' W 074°02'0 0.0
2014-Sep-12 21:31N 40°40' W 074°02'0 0.0
2014-Sep-12 20:26N 40°40' W 074°02'0 0.0
2014-Sep-12 19:20N 40°40' W 074°02'0 0.0
2014-Sep-12 18:33N 40°40' W 074°02'2 1.8
2014-Sep-12 17:24N 40°42' W 074°00'6 7.2
2014-Sep-12 16:33N 40°47' W 073°55'5 4.6
2014-Sep-12 15:27N 40°48' W 073°49'6 6.3
2014-Sep-12 14:33N 40°52' W 073°44'3 3.5
2014-Sep-12 13:33N 40°54' W 073°40'6 4.6
2014-Sep-12 12:13N 40°58' W 073°33'3 4.7
2014-Sep-12 11:31N 40°59' W 073°30'11 5.5
2014-Sep-12 09:26N 41°03' W 073°16'7 8.1
2014-Sep-12 08:33N 41°05' W 073°07'8 8.2
2014-Sep-12 07:33N 41°10' W 072°58'6 5.5
2014-Sep-12 06:33N 41°15' W 072°55'3 2.5
2014-Sep-12 05:33N 41°18' W 072°54'0 0.1
2014-Sep-12 04:30N 41°18' W 072°54'0 0.0
2014-Sep-12 02:23N 41°18' W 072°54'0 0.0
2014-Sep-12 01:31N 41°18' W 072°54'0 0.0
2014-Sep-12 00:06N 41°18' W 072°54'0 0.0
2014-Sep-11 23:33N 41°18' W 072°54'0 0.0
2014-Sep-11 22:31N 41°18' W 072°54'0 0.0
2014-Sep-11 21:29N 41°18' W 072°54'0 0.0
2014-Sep-11 20:31N 41°18' W 072°54'0 0.0
2014-Sep-11 19:33N 41°18' W 072°54'0 0.1
2014-Sep-11 18:34N 41°18' W 072°54'5 4.8
2014-Sep-11 17:34N 41°13' W 072°54'6 6.0
2014-Sep-11 16:33N 41°09' W 073°00'6 6.2
2014-Sep-11 15:33N 41°05' W 073°07'7 7.1
2014-Sep-11 14:33N 41°04' W 073°16'6 6.3
2014-Sep-11 13:33N 41°02' W 073°24'7 6.8
2014-Sep-11 12:33N 40°59' W 073°33'7 7.2
2014-Sep-11 11:33N 40°55' W 073°41'7 7.4
2014-Sep-11 10:33N 40°49' W 073°47'6 6.2
2014-Sep-11 09:33N 40°48' W 073°55'4 4.4
2014-Sep-11 08:33N 40°44' W 073°58'4 3.9
2014-Sep-11 07:33N 40°41' W 074°01'6 5.8
2014-Sep-11 06:33N 40°39' W 074°08'5 4.6
2014-Sep-11 05:33N 40°35' W 074°12'2 2.3
2014-Sep-11 04:33N 40°33' W 074°14'0 0.0
2014-Sep-11 03:33N 40°33' W 074°14'6 6.3
2014-Sep-11 02:33N 40°39' W 074°10'2 2.2
2014-Sep-11 01:33N 40°39' W 074°07'0 0.0
2014-Sep-11 00:33N 40°39' W 074°07'0 0.0
2014-Sep-10 23:33N 40°39' W 074°07'0 0.0
2014-Sep-10 22:33N 40°39' W 074°07'0 0.0
2014-Sep-10 21:33N 40°39' W 074°07'0 0.0
2014-Sep-10 20:33N 40°39' W 074°07'0 0.0
2014-Sep-10 19:33N 40°39' W 074°07'0 0.0
2014-Sep-10 18:33N 40°39' W 074°07'0 0.1
2014-Sep-10 17:33N 40°39' W 074°07'0 0.3
2014-Sep-10 16:33N 40°39' W 074°07'0 0.0
2014-Sep-10 15:33N 40°39' W 074°07'0 0.0
2014-Sep-10 14:33N 40°39' W 074°07'0 0.0
2014-Sep-10 13:33N 40°39' W 074°07'4 3.9
2014-Sep-10 12:33N 40°38' W 074°12'4 4.5
2014-Sep-10 11:33N 40°34' W 074°14'0 0.0
2014-Sep-10 10:34N 40°34' W 074°14'0 0.0
2014-Sep-10 09:33N 40°34' W 074°14'0 0.0
2014-Sep-10 08:34N 40°34' W 074°14'0 0.0
2014-Sep-10 07:33N 40°34' W 074°14'0 0.0
2014-Sep-10 06:33N 40°34' W 074°14'1 1.1
2014-Sep-10 05:33N 40°33' W 074°15'1 1.1
2014-Sep-10 04:33N 40°34' W 074°14'0 0.0
2014-Sep-10 03:34N 40°34' W 074°14'2 2.0
2014-Sep-10 02:33N 40°35' W 074°13'1 0.7
2014-Sep-10 01:33N 40°34' W 074°13'1 1.3
2014-Sep-10 00:27N 40°34' W 074°14'1 1.3
2014-Sep-09 23:23N 40°34' W 074°13'5 5.7
2014-Sep-09 22:33N 40°39' W 074°11'6 6.2
2014-Sep-09 21:33N 40°39' W 074°03'0 0.3
2014-Sep-09 20:33N 40°39' W 074°03'0 0.0
2014-Sep-09 19:33N 40°39' W 074°03'0 0.0
2014-Sep-09 18:33N 40°39' W 074°03'0 0.0
2014-Sep-09 17:33N 40°39' W 074°03'0 0.1
2014-Sep-09 16:33N 40°39' W 074°02'1 0.7
2014-Sep-09 15:33N 40°39' W 074°03'7 6.5
2014-Sep-09 14:33N 40°44' W 073°58'6 5.7
2014-Sep-09 13:33N 40°48' W 073°52'5 5.2
2014-Sep-09 12:33N 40°50' W 073°46'6 6.2
2014-Sep-09 11:31N 40°55' W 073°40'6 5.4
2014-Sep-09 10:29N 40°57' W 073°33'5 5.2
2014-Sep-09 09:33N 40°59' W 073°28'5 5.1
2014-Sep-09 08:33N 41°01' W 073°21'5 4.7
2014-Sep-09 07:33N 41°01' W 073°15'5 5.4
2014-Sep-09 06:33N 41°02' W 073°08'5 4.9
2014-Sep-09 05:32N 41°03' W 073°01'10 5.0
2014-Sep-09 03:32N 41°05' W 072°48'5 5.0
2014-Sep-09 02:33N 41°06' W 072°42'5 5.1
2014-Sep-09 01:33N 41°08' W 072°36'8 7.6
2014-Sep-09 00:33N 41°10' W 072°26'8 8.5
2014-Sep-08 23:33N 41°13' W 072°16'9 9.3
2014-Sep-08 22:33N 41°14' W 072°03'8 7.9
2014-Sep-08 21:34N 41°15' W 071°53'9 8.6
2014-Sep-08 20:33N 41°17' W 071°42'8 8.4
2014-Sep-08 19:33N 41°18' W 071°31'8 7.7
2014-Sep-08 18:33N 41°24' W 071°24'6 6.5
2014-Sep-08 17:33N 41°30' W 071°21'7 6.6
2014-Sep-08 16:32N 41°36' W 071°17'7 7.0
2014-Sep-08 15:33N 41°43' W 071°20'4 4.3
2014-Sep-08 14:31N 41°47' W 071°22'0 0.1
2014-Sep-08 13:33N 41°47' W 071°22'0 0.0
2014-Sep-08 12:33N 41°47' W 071°22'0 0.0
2014-Sep-08 11:33N 41°47' W 071°22'0 0.0
2014-Sep-08 10:33N 41°47' W 071°22'0 0.0
2014-Sep-08 09:33N 41°47' W 071°22'0 0.0
2014-Sep-08 08:33N 41°47' W 071°22'  

Dump ship's entire track history